createdAt,value
2016-12-16T00:00:33.087Z,1021.03
2016-12-16T00:01:42.384Z,1021.04
2016-12-16T00:02:51.720Z,1021.01
2016-12-16T00:04:01.015Z,1021.04
2016-12-16T00:05:10.329Z,1021.05
2016-12-16T00:06:19.671Z,1021.03
2016-12-16T00:07:28.671Z,1021
2016-12-16T00:08:37.685Z,1021.05
2016-12-16T00:09:47.002Z,1021.02
2016-12-16T00:10:56.111Z,1021.05
2016-12-16T00:12:05.407Z,1021.02
2016-12-16T00:13:14.121Z,1021.04
2016-12-16T00:14:22.830Z,1021.03
2016-12-16T00:15:32.115Z,1021.06
2016-12-16T00:16:41.413Z,1020.96
2016-12-16T00:17:51.057Z,1021.04
2016-12-16T00:19:00.463Z,1021.05
2016-12-16T00:20:09.149Z,1021.03
2016-12-16T00:21:17.854Z,1021.01
2016-12-16T00:22:26.745Z,1021.03
2016-12-16T00:23:35.749Z,1021.05
2016-12-16T00:24:44.762Z,1021.05
2016-12-16T00:25:53.824Z,1021.04
2016-12-16T00:27:03.143Z,1021.03
2016-12-16T00:28:13.348Z,1021.03
2016-12-16T00:29:22.375Z,1020.99
2016-12-16T00:30:31.061Z,1021.02
2016-12-16T00:31:40.128Z,1020.98
2016-12-16T00:32:49.758Z,1020.99
2016-12-16T00:33:58.756Z,1021.01
2016-12-16T00:35:07.749Z,1021.05
2016-12-16T00:36:17.655Z,1021.04
2016-12-16T00:37:27.253Z,1021.01
2016-12-16T00:38:35.960Z,1021.05
2016-12-16T00:39:45.451Z,1021.11
2016-12-16T00:40:54.141Z,1021.08
2016-12-16T00:42:03.495Z,1021.09
2016-12-16T00:43:12.855Z,1021.11
2016-12-16T00:44:21.558Z,1021.11
2016-12-16T00:45:30.557Z,1021.14
2016-12-16T00:46:39.910Z,1021.11
2016-12-16T00:47:48.608Z,1021.15
2016-12-16T00:48:57.908Z,1021.14
2016-12-16T00:50:07.202Z,1021.17
2016-12-16T00:51:16.600Z,1021.15
2016-12-16T00:52:25.640Z,1021.13
2016-12-16T00:53:34.629Z,1021.14
2016-12-16T00:54:43.929Z,1021.12
2016-12-16T00:55:52.641Z,1021.12
2016-12-16T00:57:01.652Z,1021.16
2016-12-16T00:58:10.946Z,1021.17
2016-12-16T00:59:20.230Z,1021.19
2016-12-16T01:00:29.536Z,1021.15
2016-12-16T01:01:38.819Z,1021.16
2016-12-16T01:02:48.528Z,1021.18
2016-12-16T01:03:57.540Z,1021.16
2016-12-16T01:05:06.839Z,1021.16
2016-12-16T01:06:15.816Z,1021.16
2016-12-16T01:07:24.498Z,1021.23
2016-12-16T01:08:33.326Z,1021.19
2016-12-16T01:09:42.329Z,1021.24
2016-12-16T01:10:51.313Z,1021.25
2016-12-16T01:12:00.623Z,1021.23
2016-12-16T01:13:09.358Z,1021.25
2016-12-16T01:14:18.419Z,1021.24
2016-12-16T01:15:27.715Z,1021.22
2016-12-16T01:16:36.403Z,1021.24
2016-12-16T01:17:45.400Z,1021.25
2016-12-16T01:18:54.709Z,1021.25
2016-12-16T01:20:03.392Z,1021.26
2016-12-16T01:21:12.076Z,1021.28
2016-12-16T01:22:22.019Z,1021.3
2016-12-16T01:23:31.345Z,1021.31
2016-12-16T01:24:40.667Z,1021.29
2016-12-16T01:25:49.749Z,1021.32
2016-12-16T01:26:58.734Z,1021.29
2016-12-16T01:28:07.736Z,1021.32
2016-12-16T01:29:16.772Z,1021.33
2016-12-16T01:30:25.762Z,1021.37
2016-12-16T01:31:34.452Z,1021.32
2016-12-16T01:32:43.735Z,1021.34
2016-12-16T01:33:53.047Z,1021.35
2016-12-16T01:35:01.728Z,1021.33
2016-12-16T01:36:11.664Z,1021.35
2016-12-16T01:37:21.300Z,1021.37
2016-12-16T01:38:30.280Z,1021.35
2016-12-16T01:39:39.606Z,1021.36
2016-12-16T01:40:48.621Z,1021.42
2016-12-16T01:41:57.905Z,1021.38
2016-12-16T01:43:06.899Z,1021.45
2016-12-16T01:44:15.886Z,1021.42
2016-12-16T01:45:25.190Z,1021.49
2016-12-16T01:46:34.531Z,1021.45
2016-12-16T01:47:43.531Z,1021.46
2016-12-16T01:48:52.676Z,1021.49
2016-12-16T01:50:01.674Z,1021.46
2016-12-16T01:51:10.361Z,1021.51
2016-12-16T01:52:19.065Z,1021.52
2016-12-16T01:53:28.063Z,1021.49
2016-12-16T01:54:37.072Z,1021.46
2016-12-16T01:55:46.072Z,1021.51
2016-12-16T01:56:55.057Z,1021.49
2016-12-16T01:58:04.037Z,1021.47
2016-12-16T01:59:13.645Z,1021.47
2016-12-16T02:00:22.942Z,1021.47
2016-12-16T02:01:31.663Z,1021.44
2016-12-16T02:02:40.711Z,1021.44
2016-12-16T02:03:49.389Z,1021.47
2016-12-16T02:04:58.422Z,1021.47
2016-12-16T02:06:07.222Z,1021.47
2016-12-16T02:07:16.539Z,1021.44
2016-12-16T02:08:25.226Z,1021.46
2016-12-16T02:09:34.894Z,1021.47
2016-12-16T02:10:43.590Z,1021.41
2016-12-16T02:11:53.246Z,1021.4
2016-12-16T02:13:02.231Z,1021.43
2016-12-16T02:14:11.547Z,1021.41
2016-12-16T02:15:21.157Z,1021.33
2016-12-16T02:16:30.468Z,1021.36
2016-12-16T02:17:40.428Z,1021.4
2016-12-16T02:18:49.435Z,1021.33
2016-12-16T02:19:58.118Z,1021.33
2016-12-16T02:21:07.732Z,1021.36
2016-12-16T02:22:16.433Z,1021.35
2016-12-16T02:23:25.265Z,1021.36
2016-12-16T02:24:34.555Z,1021.38
2016-12-16T02:25:43.538Z,1021.37
2016-12-16T02:26:52.521Z,1021.34
2016-12-16T02:28:01.212Z,1021.33
2016-12-16T02:29:10.300Z,1021.27
2016-12-16T02:30:19.293Z,1021.32
2016-12-16T02:31:28.278Z,1021.3
2016-12-16T02:32:37.269Z,1021.3
2016-12-16T02:33:46.252Z,1021.29
2016-12-16T02:34:54.952Z,1021.31
2016-12-16T02:36:03.641Z,1021.33
2016-12-16T02:37:12.954Z,1021.28
2016-12-16T02:38:21.949Z,1021.27
2016-12-16T02:39:30.950Z,1021.25
2016-12-16T02:40:40.238Z,1021.32
2016-12-16T02:41:49.527Z,1021.29
2016-12-16T02:42:58.819Z,1021.25
2016-12-16T02:44:07.803Z,1021.21
2016-12-16T02:45:16.482Z,1021.23
2016-12-16T02:46:25.868Z,1021.2
2016-12-16T02:47:34.549Z,1021.21
2016-12-16T02:48:43.229Z,1021.21
2016-12-16T02:49:52.204Z,1021.22
2016-12-16T02:51:01.204Z,1021.28
2016-12-16T02:52:10.029Z,1021.24
2016-12-16T02:53:19.318Z,1021.24
2016-12-16T02:54:28.005Z,1021.24
2016-12-16T02:55:37.300Z,1021.28
2016-12-16T02:56:45.984Z,1021.26
2016-12-16T02:57:54.769Z,1021.25
2016-12-16T02:59:04.679Z,1021.32
2016-12-16T03:00:13.399Z,1021.27
2016-12-16T03:01:22.082Z,1021.28
2016-12-16T03:02:30.761Z,1021.28
2016-12-16T03:03:39.749Z,1021.29
2016-12-16T03:04:48.449Z,1021.32
2016-12-16T03:05:57.142Z,1021.3
2016-12-16T03:07:05.834Z,1021.32
2016-12-16T03:08:14.552Z,1021.33
2016-12-16T03:09:23.551Z,1021.3
2016-12-16T03:10:32.562Z,1021.32
2016-12-16T03:11:41.587Z,1021.31
2016-12-16T03:12:50.282Z,1021.29
2016-12-16T03:13:59.291Z,1021.32
2016-12-16T03:15:08.625Z,1021.27
2016-12-16T03:16:17.364Z,1021.31
2016-12-16T03:17:26.655Z,1021.3
2016-12-16T03:18:35.640Z,1021.31
2016-12-16T03:19:44.652Z,1021.3
2016-12-16T03:20:53.352Z,1021.3
2016-12-16T03:22:02.647Z,1021.29
2016-12-16T03:23:12.253Z,1021.27
2016-12-16T03:24:21.243Z,1021.33
2016-12-16T03:25:29.923Z,1021.32
2016-12-16T03:26:38.928Z,1021.36
2016-12-16T03:27:47.610Z,1021.36
2016-12-16T03:28:56.290Z,1021.4
2016-12-16T03:30:05.282Z,1021.41
2016-12-16T03:31:14.892Z,1021.39
2016-12-16T03:32:24.239Z,1021.46
2016-12-16T03:33:33.532Z,1021.42
2016-12-16T03:34:42.529Z,1021.43
2016-12-16T03:35:51.205Z,1021.45
2016-12-16T03:36:59.887Z,1021.41
2016-12-16T03:38:09.189Z,1021.53
2016-12-16T03:39:17.870Z,1021.48
2016-12-16T03:40:26.853Z,1021.5
2016-12-16T03:41:35.843Z,1021.49
2016-12-16T03:42:44.552Z,1021.51
2016-12-16T03:43:53.378Z,1021.5
2016-12-16T03:45:02.665Z,1021.47
2016-12-16T03:46:11.650Z,1021.44
2016-12-16T03:47:20.640Z,1021.47
2016-12-16T03:48:30.545Z,1021.5
2016-12-16T03:49:39.536Z,1021.53
2016-12-16T03:50:48.517Z,1021.51
2016-12-16T03:51:57.821Z,1021.51
2016-12-16T03:53:07.726Z,1021.52
2016-12-16T03:54:16.736Z,1021.53
2016-12-16T03:55:26.338Z,1021.5
2016-12-16T03:56:35.368Z,1021.52
2016-12-16T03:57:44.668Z,1021.46
2016-12-16T03:58:53.657Z,1021.49
2016-12-16T04:00:02.330Z,1021.5
2016-12-16T04:01:11.309Z,1021.49
2016-12-16T04:02:20.293Z,1021.48
2016-12-16T04:03:29.283Z,1021.48
2016-12-16T04:04:38.581Z,1021.48
2016-12-16T04:05:47.563Z,1021.5
2016-12-16T04:06:56.262Z,1021.53
2016-12-16T04:08:05.566Z,1021.56
2016-12-16T04:09:14.574Z,1021.57
2016-12-16T04:10:23.257Z,1021.58
2016-12-16T04:11:32.259Z,1021.59
2016-12-16T04:12:41.860Z,1021.63
2016-12-16T04:13:50.852Z,1021.62
2016-12-16T04:14:59.842Z,1021.59
2016-12-16T04:16:08.861Z,1021.61
2016-12-16T04:17:18.477Z,1021.61
2016-12-16T04:18:28.134Z,1021.58
2016-12-16T04:19:37.117Z,1021.59
2016-12-16T04:20:45.793Z,1021.59
2016-12-16T04:21:55.075Z,1021.6
2016-12-16T04:23:03.767Z,1021.63
2016-12-16T04:24:13.072Z,1021.63
2016-12-16T04:25:22.108Z,1021.65
2016-12-16T04:26:30.800Z,1021.65
2016-12-16T04:27:40.117Z,1021.65
2016-12-16T04:28:49.432Z,1021.66
2016-12-16T04:29:58.458Z,1021.68
2016-12-16T04:31:07.158Z,1021.73
2016-12-16T04:32:16.152Z,1021.72
2016-12-16T04:33:25.751Z,1021.73
2016-12-16T04:34:34.445Z,1021.76
2016-12-16T04:35:43.897Z,1021.72
2016-12-16T04:36:52.587Z,1021.72
2016-12-16T04:38:01.892Z,1021.74
2016-12-16T04:39:11.488Z,1021.78
2016-12-16T04:40:20.507Z,1021.77
2016-12-16T04:41:29.943Z,1021.78
2016-12-16T04:42:39.234Z,1021.74
2016-12-16T04:43:48.563Z,1021.82
2016-12-16T04:44:57.848Z,1021.79
2016-12-16T04:46:07.459Z,1021.82
2016-12-16T04:47:16.758Z,1021.83
2016-12-16T04:48:25.467Z,1021.85
2016-12-16T04:49:34.450Z,1021.88
2016-12-16T04:50:43.123Z,1021.87
2016-12-16T04:51:51.793Z,1021.88
2016-12-16T04:53:00.789Z,1021.9
2016-12-16T04:54:10.077Z,1021.91
2016-12-16T04:55:19.066Z,1021.93
2016-12-16T04:56:28.054Z,1021.91
2016-12-16T04:57:37.043Z,1021.94
2016-12-16T04:58:45.872Z,1021.92
2016-12-16T04:59:54.876Z,1021.94
2016-12-16T05:01:03.564Z,1021.96
2016-12-16T05:02:12.239Z,1022.02
2016-12-16T05:03:21.534Z,1022.04
2016-12-16T05:04:30.248Z,1022.03
2016-12-16T05:05:39.536Z,1022.09
2016-12-16T05:06:48.523Z,1022.08
2016-12-16T05:07:57.210Z,1022.06
2016-12-16T05:09:06.500Z,1022.06
2016-12-16T05:10:15.826Z,1022.07
2016-12-16T05:11:24.847Z,1022.09
2016-12-16T05:12:33.531Z,1022.12
2016-12-16T05:13:42.517Z,1022.11
2016-12-16T05:14:52.115Z,1022.11
2016-12-16T05:16:00.796Z,1022.2
2016-12-16T05:17:09.493Z,1022.19
2016-12-16T05:18:19.116Z,1022.22
2016-12-16T05:19:28.425Z,1022.13
2016-12-16T05:20:37.745Z,1022.12
2016-12-16T05:21:46.729Z,1022.12
2016-12-16T05:22:55.719Z,1022.11
2016-12-16T05:24:04.414Z,1022.12
2016-12-16T05:25:14.014Z,1022.12
2016-12-16T05:26:22.761Z,1022.11
2016-12-16T05:27:32.138Z,1022.14
2016-12-16T05:28:40.843Z,1022.13
2016-12-16T05:29:50.154Z,1022.12
2016-12-16T05:30:59.256Z,1022.14
2016-12-16T05:32:08.259Z,1022.13
2016-12-16T05:33:17.039Z,1022.12
2016-12-16T05:34:25.746Z,1022.11
2016-12-16T05:35:34.738Z,1022.13
2016-12-16T05:36:44.346Z,1022.11
2016-12-16T05:37:53.351Z,1022.12
2016-12-16T05:39:02.337Z,1022.16
2016-12-16T05:40:11.028Z,1022.13
2016-12-16T05:41:20.317Z,1022.14
2016-12-16T05:42:28.998Z,1022.11
2016-12-16T05:43:37.690Z,1022.1
2016-12-16T05:44:46.375Z,1022.18
2016-12-16T05:45:55.063Z,1022.17
2016-12-16T05:47:04.058Z,1022.23
2016-12-16T05:48:12.735Z,1022.11
2016-12-16T05:49:21.722Z,1022.21
2016-12-16T05:50:30.697Z,1022.16
2016-12-16T05:51:39.688Z,1022.19
2016-12-16T05:52:49.002Z,1022.19
2016-12-16T05:53:58.018Z,1022.18
2016-12-16T05:55:07.019Z,1022.19
2016-12-16T05:56:16.125Z,1022.21
2016-12-16T05:57:25.410Z,1022.22
2016-12-16T05:58:34.725Z,1022.19
2016-12-16T05:59:44.007Z,1022.18
2016-12-16T06:00:52.991Z,1022.24
2016-12-16T06:02:01.769Z,1022.25
2016-12-16T06:03:11.359Z,1022.32
2016-12-16T06:04:20.655Z,1022.34
2016-12-16T06:05:29.644Z,1022.33
2016-12-16T06:06:38.965Z,1022.41
2016-12-16T06:07:47.956Z,1022.42
2016-12-16T06:08:56.935Z,1022.38
2016-12-16T06:10:06.338Z,1022.37
2016-12-16T06:11:15.325Z,1022.39
2016-12-16T06:12:24.928Z,1022.42
2016-12-16T06:13:34.381Z,1022.4
2016-12-16T06:14:43.686Z,1022.44
2016-12-16T06:15:52.675Z,1022.45
2016-12-16T06:17:01.656Z,1022.47
2016-12-16T06:18:10.637Z,1022.45
2016-12-16T06:19:19.415Z,1022.53
2016-12-16T06:20:28.082Z,1022.53
2016-12-16T06:21:36.824Z,1022.53
2016-12-16T06:22:46.146Z,1022.53
2016-12-16T06:23:55.164Z,1022.56
2016-12-16T06:25:04.303Z,1022.54
2016-12-16T06:26:13.591Z,1022.53
2016-12-16T06:27:22.895Z,1022.56
2016-12-16T06:28:32.797Z,1022.55
2016-12-16T06:29:41.797Z,1022.59
2016-12-16T06:30:51.395Z,1022.59
2016-12-16T06:32:00.071Z,1022.67
2016-12-16T06:33:09.066Z,1022.64
2016-12-16T06:34:18.053Z,1022.64
2016-12-16T06:35:27.352Z,1022.69
2016-12-16T06:36:36.784Z,1022.85
2016-12-16T06:37:45.802Z,1022.73
2016-12-16T06:38:55.408Z,1022.71
2016-12-16T06:40:04.402Z,1022.8
2016-12-16T06:41:13.397Z,1022.78
2016-12-16T06:42:22.075Z,1022.8
2016-12-16T06:43:31.058Z,1022.84
2016-12-16T06:44:40.360Z,1022.8
2016-12-16T06:45:49.365Z,1022.8
2016-12-16T06:46:58.355Z,1022.84
2016-12-16T06:48:07.123Z,1022.87
2016-12-16T06:49:15.980Z,1022.89
2016-12-16T06:50:25.064Z,1022.88
2016-12-16T06:51:34.374Z,1022.9
2016-12-16T06:52:43.404Z,1022.88
2016-12-16T06:53:52.752Z,1022.94
2016-12-16T06:55:01.516Z,1022.93
2016-12-16T06:56:11.116Z,1022.95
2016-12-16T06:57:20.414Z,1022.92
2016-12-16T06:58:30.004Z,1022.92
2016-12-16T06:59:39.760Z,1023.01
2016-12-16T07:00:48.441Z,1022.99
2016-12-16T07:01:57.435Z,1022.98
2016-12-16T07:03:06.414Z,1022.96
2016-12-16T07:04:15.086Z,1023
2016-12-16T07:05:24.879Z,1023.01
2016-12-16T07:06:33.864Z,1022.98
2016-12-16T07:07:42.850Z,1023.02
2016-12-16T07:08:51.542Z,1023.03
2016-12-16T07:10:00.227Z,1022.98
2016-12-16T07:11:09.231Z,1023.05
2016-12-16T07:12:18.864Z,1023.06
2016-12-16T07:13:27.854Z,1023.09
2016-12-16T07:14:36.534Z,1023.09
2016-12-16T07:15:45.229Z,1023.15
2016-12-16T07:16:54.320Z,1023.12
2016-12-16T07:18:03.316Z,1023.07
2016-12-16T07:19:12.609Z,1023.08
2016-12-16T07:20:21.907Z,1023.14
2016-12-16T07:21:31.501Z,1023.11
2016-12-16T07:22:40.669Z,1023.16
2016-12-16T07:23:49.981Z,1023.19
2016-12-16T07:24:58.657Z,1023.17
2016-12-16T07:26:07.636Z,1023.22
2016-12-16T07:27:16.662Z,1023.17
2016-12-16T07:28:26.260Z,1023.26
2016-12-16T07:29:35.885Z,1023.22
2016-12-16T07:30:45.189Z,1023.22
2016-12-16T07:31:54.197Z,1023.22
2016-12-16T07:33:03.515Z,1023.25
2016-12-16T07:34:12.823Z,1023.27
2016-12-16T07:35:21.822Z,1023.34
2016-12-16T07:36:30.539Z,1023.32
2016-12-16T07:37:39.533Z,1023.29
2016-12-16T07:38:48.530Z,1023.32
2016-12-16T07:39:57.227Z,1023.3
2016-12-16T07:41:05.918Z,1023.36
2016-12-16T07:42:14.613Z,1023.36
2016-12-16T07:43:23.593Z,1023.31
2016-12-16T07:44:32.896Z,1023.34
2016-12-16T07:46:50.829Z,1023.39
2016-12-16T07:48:00.137Z,1023.36
2016-12-16T07:49:08.833Z,1023.34
2016-12-16T07:50:17.830Z,1023.3
2016-12-16T07:51:26.919Z,1023.36
2016-12-16T07:52:35.912Z,1023.35
2016-12-16T07:53:44.905Z,1023.31
2016-12-16T07:54:54.515Z,1023.36
2016-12-16T07:56:04.118Z,1023.32
2016-12-16T07:57:13.118Z,1023.31
2016-12-16T07:58:21.810Z,1023.35
2016-12-16T07:59:31.114Z,1023.38
2016-12-16T08:00:40.396Z,1023.34
2016-12-16T08:01:49.387Z,1023.38
2016-12-16T08:02:58.371Z,1023.38
2016-12-16T08:04:07.064Z,1023.39
2016-12-16T08:05:16.059Z,1023.43
2016-12-16T08:06:25.391Z,1023.47
2016-12-16T08:07:34.391Z,1023.42
2016-12-16T08:08:43.383Z,1023.5
2016-12-16T08:09:52.380Z,1023.5
2016-12-16T08:11:01.707Z,1023.48
2016-12-16T08:12:10.396Z,1023.45
2016-12-16T08:13:19.702Z,1023.47
2016-12-16T08:14:29.002Z,1023.51
2016-12-16T08:15:37.697Z,1023.52
2016-12-16T08:16:46.996Z,1023.53
2016-12-16T08:17:56.006Z,1023.54
2016-12-16T08:19:05.316Z,1023.55
2016-12-16T08:20:14.107Z,1023.57
2016-12-16T08:21:23.096Z,1023.53
2016-12-16T08:22:32.404Z,1023.62
2016-12-16T08:23:41.411Z,1023.63
2016-12-16T08:24:50.447Z,1023.64
2016-12-16T08:25:59.848Z,1023.67
2016-12-16T08:27:09.160Z,1023.72
2016-12-16T08:28:18.457Z,1023.72
2016-12-16T08:29:27.470Z,1023.69
2016-12-16T08:30:36.160Z,1023.71
2016-12-16T08:31:45.318Z,1023.7
2016-12-16T08:32:54.621Z,1023.73
2016-12-16T08:34:03.616Z,1023.77
2016-12-16T08:35:12.611Z,1023.74
2016-12-16T08:36:21.604Z,1023.83
2016-12-16T08:37:30.994Z,1023.83
2016-12-16T08:38:39.692Z,1023.82
2016-12-16T08:39:48.372Z,1023.82
2016-12-16T08:40:57.071Z,1023.82
2016-12-16T08:42:06.073Z,1023.84
2016-12-16T08:43:15.723Z,1023.86
2016-12-16T08:44:24.713Z,1023.84
2016-12-16T08:45:33.467Z,1023.91
2016-12-16T08:46:42.156Z,1023.93
2016-12-16T08:47:51.157Z,1023.91
2016-12-16T08:49:00.913Z,1023.92
2016-12-16T08:50:09.907Z,1023.89
2016-12-16T08:51:18.591Z,1023.96
2016-12-16T08:52:27.896Z,1023.95
2016-12-16T08:53:36.901Z,1023.93
2016-12-16T08:54:45.741Z,1023.93
2016-12-16T08:55:55.350Z,1023.96
2016-12-16T08:57:04.348Z,1023.98
2016-12-16T08:58:13.353Z,1024.06
2016-12-16T08:59:22.047Z,1024.04
2016-12-16T09:00:30.901Z,1024.08
2016-12-16T09:01:39.590Z,1024.07
2016-12-16T09:02:48.285Z,1024.06
2016-12-16T09:03:56.978Z,1024.02
2016-12-16T09:05:05.971Z,1024.05
2016-12-16T09:06:15.655Z,1024.06
2016-12-16T09:07:24.665Z,1024.1
2016-12-16T09:08:33.971Z,1024.1
2016-12-16T09:09:43.610Z,1024.11
2016-12-16T09:10:52.925Z,1024.11
2016-12-16T09:12:02.333Z,1024.12
2016-12-16T09:13:11.043Z,1024.15
2016-12-16T09:14:20.357Z,1024.27
2016-12-16T09:15:29.047Z,1024.17
2016-12-16T09:16:37.740Z,1024.16
2016-12-16T09:17:46.528Z,1024.12
2016-12-16T09:18:55.840Z,1024.2
2016-12-16T09:20:04.842Z,1024.2
2016-12-16T09:21:13.851Z,1024.21
2016-12-16T09:22:22.549Z,1024.2
2016-12-16T09:23:31.533Z,1024.18
2016-12-16T09:24:40.216Z,1024.15
2016-12-16T09:25:48.908Z,1024.17
2016-12-16T09:26:58.219Z,1024.17
2016-12-16T09:28:07.244Z,1024.19
2016-12-16T09:29:16.256Z,1024.2
2016-12-16T09:30:25.269Z,1024.22
2016-12-16T09:31:34.266Z,1024.18
2016-12-16T09:32:43.570Z,1024.2
2016-12-16T09:33:52.582Z,1024.19
2016-12-16T09:35:02.194Z,1024.23
2016-12-16T09:36:11.508Z,1024.24
2016-12-16T09:37:20.210Z,1024.28
2016-12-16T09:38:28.952Z,1024.23
2016-12-16T09:39:37.950Z,1024.22
2016-12-16T09:40:46.951Z,1024.25
2016-12-16T09:41:55.659Z,1024.24
2016-12-16T09:43:05.597Z,1024.19
2016-12-16T09:44:14.887Z,1024.2
2016-12-16T09:45:23.581Z,1024.18
2016-12-16T09:46:33.042Z,1024.19
2016-12-16T09:47:42.650Z,1024.22
2016-12-16T09:48:52.251Z,1024.21
2016-12-16T09:50:01.251Z,1024.26
2016-12-16T09:51:10.275Z,1024.17
2016-12-16T09:52:19.559Z,1024.19
2016-12-16T09:53:28.867Z,1024.22
2016-12-16T09:54:37.884Z,1024.22
2016-12-16T09:55:47.204Z,1024.17
2016-12-16T09:56:56.209Z,1024.15
2016-12-16T09:58:05.211Z,1024.24
2016-12-16T09:59:14.215Z,1024.19
2016-12-16T10:00:23.520Z,1024.21
2016-12-16T10:01:32.528Z,1024.3
2016-12-16T10:02:41.917Z,1024.15
2016-12-16T10:03:50.723Z,1024.2
2016-12-16T10:05:00.403Z,1024.22
2016-12-16T10:06:09.456Z,1024.22
2016-12-16T10:07:18.150Z,1024.15
2016-12-16T10:08:27.147Z,1024.12
2016-12-16T10:09:35.835Z,1024.14
2016-12-16T10:10:44.898Z,1024.17
2016-12-16T10:11:53.899Z,1024.22
2016-12-16T10:13:02.911Z,1024.15
2016-12-16T10:14:11.911Z,1024.16
2016-12-16T10:15:21.072Z,1024.17
2016-12-16T10:16:29.822Z,1024.15
2016-12-16T10:17:38.516Z,1024.13
2016-12-16T10:18:48.138Z,1024.15
2016-12-16T10:19:57.432Z,1024.12
2016-12-16T10:21:06.156Z,1024.16
2016-12-16T10:22:15.452Z,1024.14
2016-12-16T10:23:25.094Z,1024.07
2016-12-16T10:24:34.090Z,1024.13
2016-12-16T10:25:42.777Z,1024.07
2016-12-16T10:26:51.912Z,1024.07
2016-12-16T10:28:00.591Z,1024
2016-12-16T10:29:09.285Z,1024.03
2016-12-16T10:30:18.266Z,1023.98
2016-12-16T10:31:27.559Z,1024
2016-12-16T10:32:36.711Z,1023.97
2016-12-16T10:33:45.709Z,1024
2016-12-16T10:34:55.028Z,1024.03
2016-12-16T10:36:04.028Z,1024.05
2016-12-16T10:37:13.652Z,1024.01
2016-12-16T10:38:22.449Z,1024.05
2016-12-16T10:39:31.792Z,1024.03
2016-12-16T10:40:41.106Z,1024.03
2016-12-16T10:41:50.085Z,1024.07
2016-12-16T10:42:59.092Z,1024.09
2016-12-16T10:44:08.165Z,1024.1
2016-12-16T10:45:16.850Z,1024.1
2016-12-16T10:46:26.146Z,1024.06
2016-12-16T10:47:34.864Z,1024.02
2016-12-16T10:48:43.883Z,1024.04
2016-12-16T10:49:53.487Z,1024.04
2016-12-16T10:51:02.506Z,1024.01
2016-12-16T10:52:11.241Z,1024.01
2016-12-16T10:53:20.234Z,1024.04
2016-12-16T10:54:29.539Z,1024.07
2016-12-16T10:55:38.223Z,1024.05
2016-12-16T10:56:47.516Z,1024.08
2016-12-16T10:57:56.520Z,1024.08
2016-12-16T10:59:05.528Z,1024.1
2016-12-16T11:00:14.212Z,1024.14
2016-12-16T11:01:23.678Z,1024.1
2016-12-16T11:02:32.400Z,1024.13
2016-12-16T11:03:41.418Z,1024.12
2016-12-16T11:04:50.720Z,1024.16
2016-12-16T11:06:00.028Z,1024.13
2016-12-16T11:07:09.333Z,1024.09
2016-12-16T11:08:18.019Z,1024.11
2016-12-16T11:09:26.714Z,1024.14
2016-12-16T11:10:35.731Z,1024.09
2016-12-16T11:11:44.732Z,1024.09
2016-12-16T11:12:54.400Z,1024.1
2016-12-16T11:14:03.723Z,1024.07
2016-12-16T11:15:13.023Z,1024.07
2016-12-16T11:16:22.322Z,1024.04
2016-12-16T11:17:31.322Z,1024.04
2016-12-16T11:18:40.317Z,1024.04
2016-12-16T11:19:49.326Z,1024.04
2016-12-16T11:20:58.676Z,1024.04
2016-12-16T11:22:07.667Z,1024.01
2016-12-16T11:23:16.367Z,1024.07
2016-12-16T11:24:26.021Z,1024.03
2016-12-16T11:25:35.033Z,1024.03
2016-12-16T11:26:44.032Z,1024.05
2016-12-16T11:27:52.728Z,1024.07
2016-12-16T11:29:01.733Z,1024.07
2016-12-16T11:30:10.543Z,1024
2016-12-16T11:31:19.864Z,1024.02
2016-12-16T11:32:28.862Z,1023.99
2016-12-16T11:33:37.877Z,1024.02
2016-12-16T11:34:46.565Z,1024.07
2016-12-16T11:35:56.048Z,1024.05
2016-12-16T11:37:05.359Z,1024.02
2016-12-16T11:38:14.049Z,1024.02
2016-12-16T11:39:23.046Z,1024.03
2016-12-16T11:40:32.066Z,1024.04
2016-12-16T11:41:41.375Z,1024.05
2016-12-16T11:42:50.080Z,1024.05
2016-12-16T11:43:59.384Z,1024.04
2016-12-16T11:45:08.698Z,1024.04
2016-12-16T11:46:17.392Z,1024.06
2016-12-16T11:47:27.051Z,1024.08
2016-12-16T11:48:35.733Z,1024.11
2016-12-16T11:49:44.723Z,1024.05
2016-12-16T11:50:54.037Z,1024.05
2016-12-16T11:52:03.032Z,1024.05
2016-12-16T11:53:12.161Z,1024.11
2016-12-16T11:54:21.165Z,1024.05
2016-12-16T11:55:29.844Z,1024.07
2016-12-16T11:56:39.139Z,1024.11
2016-12-16T11:57:48.161Z,1024.1
2016-12-16T11:58:57.300Z,1024.1
2016-12-16T12:00:06.317Z,1024.14
2016-12-16T12:01:15.308Z,1024.16
2016-12-16T12:02:24.320Z,1024.19
2016-12-16T12:03:33.029Z,1024.19
2016-12-16T12:04:42.689Z,1024.17
2016-12-16T12:05:51.385Z,1024.17
2016-12-16T12:07:00.742Z,1024.16
2016-12-16T12:08:09.443Z,1024.12
2016-12-16T12:09:18.749Z,1024.16
2016-12-16T12:10:27.551Z,1024.22
2016-12-16T12:11:36.854Z,1024.21
2016-12-16T12:12:45.850Z,1024.21
2016-12-16T12:13:55.153Z,1024.22
2016-12-16T12:15:03.872Z,1024.21
2016-12-16T12:16:12.689Z,1024.24
2016-12-16T12:17:21.685Z,1024.19
2016-12-16T12:18:31.304Z,1024.22
2016-12-16T12:19:40.918Z,1024.22
2016-12-16T12:20:49.916Z,1024.21
2016-12-16T12:21:59.246Z,1024.27
2016-12-16T12:23:08.247Z,1024.24
2016-12-16T12:24:17.247Z,1024.23
2016-12-16T12:25:26.544Z,1024.2
2016-12-16T12:26:35.530Z,1024.23
2016-12-16T12:27:44.218Z,1024.22
2016-12-16T12:28:53.212Z,1024.22
2016-12-16T12:30:02.541Z,1024.21
2016-12-16T12:31:11.230Z,1024.24
2016-12-16T12:32:19.958Z,1024.2
2016-12-16T12:33:29.266Z,1024.2
2016-12-16T12:34:38.567Z,1024.24
2016-12-16T12:35:47.869Z,1024.27
2016-12-16T12:36:56.868Z,1024.3
2016-12-16T12:38:05.865Z,1024.3
2016-12-16T12:39:14.644Z,1024.3
2016-12-16T12:40:23.621Z,1024.27
2016-12-16T12:41:32.300Z,1024.27
2016-12-16T12:42:41.327Z,1024.29
2016-12-16T12:43:50.033Z,1024.3
2016-12-16T12:44:59.188Z,1024.28
2016-12-16T12:46:08.791Z,1024.26
2016-12-16T12:47:18.094Z,1024.3
2016-12-16T12:48:27.102Z,1024.27
2016-12-16T12:49:35.804Z,1024.26
2016-12-16T12:50:45.274Z,1024.31
2016-12-16T12:51:54.290Z,1024.26
2016-12-16T12:53:03.008Z,1024.36
2016-12-16T12:54:12.004Z,1024.3
2016-12-16T12:55:20.696Z,1024.38
2016-12-16T12:56:29.697Z,1024.31
2016-12-16T12:57:38.705Z,1024.29
2016-12-16T12:58:47.704Z,1024.35
2016-12-16T12:59:57.004Z,1024.37
2016-12-16T13:01:06.000Z,1024.31
2016-12-16T13:02:15.730Z,1024.3
2016-12-16T13:03:24.413Z,1024.28
2016-12-16T13:04:33.714Z,1024.29
2016-12-16T13:05:42.751Z,1024.3
2016-12-16T13:06:51.764Z,1024.29
2016-12-16T13:08:00.562Z,1024.31
2016-12-16T13:09:09.588Z,1024.34
2016-12-16T13:10:18.286Z,1024.35
2016-12-16T13:11:27.313Z,1024.4
2016-12-16T13:12:36.319Z,1024.42
2016-12-16T13:13:45.006Z,1024.42
2016-12-16T13:14:54.331Z,1024.43
2016-12-16T13:16:03.330Z,1024.44
2016-12-16T13:17:12.334Z,1024.5
2016-12-16T13:18:21.023Z,1024.49
2016-12-16T13:19:29.879Z,1024.49
2016-12-16T13:20:39.493Z,1024.51
2016-12-16T13:21:48.174Z,1024.57
2016-12-16T13:22:57.466Z,1024.58
2016-12-16T13:24:06.167Z,1024.53
2016-12-16T13:25:16.186Z,1024.57
2016-12-16T13:26:25.166Z,1024.55
2016-12-16T13:27:34.171Z,1024.57
2016-12-16T13:28:42.860Z,1024.61
2016-12-16T13:29:52.160Z,1024.6
2016-12-16T13:31:00.958Z,1024.63
2016-12-16T13:32:09.965Z,1024.69
2016-12-16T13:33:19.258Z,1024.69
2016-12-16T13:34:28.270Z,1024.72
2016-12-16T13:35:37.583Z,1024.71
2016-12-16T13:36:46.280Z,1024.69
2016-12-16T13:37:55.581Z,1024.66
2016-12-16T13:39:04.574Z,1024.69
2016-12-16T13:40:13.285Z,1024.7
2016-12-16T13:41:22.274Z,1024.68
2016-12-16T13:42:31.165Z,1024.66
2016-12-16T13:43:40.155Z,1024.69
2016-12-16T13:44:49.460Z,1024.77
2016-12-16T13:45:58.171Z,1024.74
2016-12-16T13:47:07.163Z,1024.78
2016-12-16T13:48:16.581Z,1024.79
2016-12-16T13:49:25.269Z,1024.85
2016-12-16T13:50:34.273Z,1024.82
2016-12-16T13:51:43.892Z,1024.86
2016-12-16T13:52:53.494Z,1024.8
2016-12-16T13:54:03.164Z,1024.84
2016-12-16T13:55:12.155Z,1024.79
2016-12-16T13:56:21.145Z,1024.8
2016-12-16T13:57:30.138Z,1024.81
2016-12-16T13:58:39.163Z,1024.82
2016-12-16T13:59:48.483Z,1024.8